createdAt,value
2018-02-22T00:02:10.076Z,40.90
2018-02-22T00:04:38.740Z,47.90
2018-02-22T00:07:07.385Z,44.80
2018-02-22T00:09:36.822Z,46.92
2018-02-22T00:12:05.464Z,43.35
2018-02-22T00:14:34.896Z,43.83
2018-02-22T00:17:03.545Z,45.78
2018-02-22T00:19:32.964Z,50.12
2018-02-22T00:22:01.629Z,50.35
2018-02-22T00:24:31.061Z,40.63
2018-02-22T00:26:59.720Z,40.97
2018-02-22T00:29:29.129Z,45.70
2018-02-22T00:31:58.569Z,45.80
2018-02-22T00:34:28.178Z,47.88
2018-02-22T00:36:56.838Z,47.47
2018-02-22T00:39:25.511Z,44.90
2018-02-22T00:41:54.617Z,52.75
2018-02-22T00:44:23.350Z,46.72
2018-02-22T00:46:52.077Z,35.65
2018-02-22T00:49:21.490Z,36.42
2018-02-22T00:51:51.085Z,50.10
2018-02-22T00:54:20.632Z,41.92
2018-02-22T00:56:49.378Z,47.92
2018-02-22T00:59:18.843Z,40.65
2018-02-22T01:01:47.509Z,42.90
2018-02-22T01:04:16.184Z,47.47
2018-02-22T01:06:44.830Z,43.47
2018-02-22T01:09:14.251Z,40.33
2018-02-22T01:11:42.926Z,40.78
2018-02-22T01:14:12.408Z,44.47
2018-02-22T01:16:40.883Z,40.47
2018-02-22T01:19:09.542Z,45.58
2018-02-22T01:21:38.241Z,49.63
2018-02-22T01:24:06.904Z,47.95
2018-02-22T01:26:35.632Z,37.40
2018-02-22T01:29:04.337Z,43.87
2018-02-22T01:31:33.760Z,44.90
2018-02-22T01:34:02.399Z,46.37
2018-02-22T01:36:31.076Z,39.47
2018-02-22T01:38:59.736Z,46.72
2018-02-22T01:41:28.412Z,50.88
2018-02-22T01:43:57.063Z,41.37
2018-02-22T01:46:26.479Z,47.97
2018-02-22T01:48:55.155Z,47.28
2018-02-22T01:51:24.564Z,41.42
2018-02-22T01:53:53.238Z,48.87
2018-02-22T01:56:22.670Z,40.22
2018-02-22T01:58:51.317Z,44.70
2018-02-22T02:01:20.744Z,45.90
2018-02-22T02:03:49.410Z,54.97
2018-02-22T02:06:18.846Z,54.92
2018-02-22T02:08:47.499Z,49.08
2018-02-22T02:11:17.621Z,51.05
2018-02-22T02:13:46.308Z,54.72
2018-02-22T02:16:15.721Z,43.70
2018-02-22T02:18:44.376Z,52.13
2018-02-22T02:21:13.798Z,51.10
2018-02-22T02:23:43.240Z,56.75
2018-02-22T02:26:11.889Z,47.85
2018-02-22T02:28:40.560Z,40.00
2018-02-22T02:31:09.995Z,49.08
2018-02-22T02:33:38.656Z,48.58
2018-02-22T02:36:08.100Z,47.75
2018-02-22T02:38:36.748Z,42.38
2018-02-22T02:41:06.212Z,41.05
2018-02-22T02:43:34.899Z,51.40
2018-02-22T02:46:03.556Z,38.38
2018-02-22T02:48:32.232Z,46.33
2018-02-22T02:51:00.557Z,46.15
2018-02-22T02:53:29.210Z,38.28
2018-02-22T02:55:57.869Z,40.80
2018-02-22T02:58:26.525Z,44.33
2018-02-22T03:00:55.950Z,48.60
2018-02-22T03:03:24.633Z,35.33
2018-02-22T03:05:53.298Z,43.38
2018-02-22T03:08:22.727Z,44.55
2018-02-22T03:10:51.387Z,45.33
2018-02-22T03:13:20.844Z,49.40
2018-02-22T03:15:49.488Z,38.03
2018-02-22T03:18:18.894Z,43.78
2018-02-22T03:20:47.555Z,49.38
2018-02-22T03:23:17.340Z,38.22
2018-02-22T03:25:46.026Z,42.67
2018-02-22T03:28:14.681Z,48.50
2018-02-22T03:30:44.345Z,41.37
2018-02-22T03:33:14.013Z,44.63
2018-02-22T03:35:42.661Z,46.45
2018-02-22T03:38:12.339Z,43.33
2018-02-22T03:40:41.004Z,38.70
2018-02-22T03:43:09.660Z,39.33
2018-02-22T03:45:38.311Z,37.53
2018-02-22T03:48:07.727Z,40.05
2018-02-22T03:50:36.420Z,34.20
2018-02-22T03:53:06.665Z,41.60
2018-02-22T03:55:35.316Z,34.55
2018-02-22T03:58:03.986Z,42.92
2018-02-22T04:00:33.404Z,36.38
2018-02-22T04:03:02.094Z,42.13
2018-02-22T04:05:30.743Z,31.52
2018-02-22T04:07:59.419Z,39.15
2018-02-22T04:10:29.834Z,41.47
2018-02-22T04:12:59.632Z,38.35
2018-02-22T04:15:28.306Z,45.03
2018-02-22T04:17:56.948Z,43.70
2018-02-22T04:20:26.275Z,42.97
2018-02-22T04:22:54.975Z,35.75
2018-02-22T04:25:23.630Z,35.58
2018-02-22T04:27:53.315Z,35.90
2018-02-22T04:30:22.013Z,40.08
2018-02-22T04:32:51.088Z,38.50
2018-02-22T04:35:19.751Z,35.78
2018-02-22T04:37:48.397Z,33.80
2018-02-22T04:40:17.060Z,34.90
2018-02-22T04:42:46.513Z,29.87
2018-02-22T04:45:15.184Z,36.33
2018-02-22T04:47:45.745Z,35.88
2018-02-22T04:50:14.409Z,33.83
2018-02-22T04:52:43.080Z,27.40
2018-02-22T04:55:11.720Z,35.97
2018-02-22T04:57:41.158Z,36.70
2018-02-22T05:00:09.859Z,36.67
2018-02-22T05:02:38.534Z,32.15
2018-02-22T05:05:07.189Z,35.95
2018-02-22T05:07:36.599Z,37.08
2018-02-22T05:10:06.028Z,37.35
2018-02-22T05:12:34.680Z,34.47
2018-02-22T05:15:04.126Z,31.80
2018-02-22T05:17:32.768Z,26.95
2018-02-22T05:20:02.192Z,36.10
2018-02-22T05:22:30.858Z,38.90
2018-02-22T05:25:00.280Z,22.85
2018-02-22T05:27:28.948Z,38.13
2018-02-22T05:29:58.357Z,30.00
2018-02-22T05:32:27.028Z,30.27
2018-02-22T05:34:56.614Z,36.92
2018-02-22T05:37:25.264Z,38.65
2018-02-22T05:39:53.947Z,43.58
2018-02-22T05:42:22.643Z,30.98
2018-02-22T05:44:52.209Z,35.05
2018-02-22T05:47:21.638Z,31.98
2018-02-22T05:49:50.389Z,32.50
2018-02-22T05:52:20.630Z,34.97
2018-02-22T05:54:49.396Z,31.60
2018-02-22T05:57:19.566Z,30.12
2018-02-22T05:59:48.247Z,38.05
2018-02-22T06:02:16.898Z,32.08
2018-02-22T06:04:46.712Z,34.65
2018-02-22T06:07:15.382Z,33.75
2018-02-22T06:09:44.825Z,41.33
2018-02-22T06:12:13.554Z,34.65
2018-02-22T06:14:42.238Z,32.75
2018-02-22T06:17:10.905Z,33.25
2018-02-22T06:19:41.014Z,40.33
2018-02-22T06:22:09.679Z,28.80
2018-02-22T06:24:38.380Z,32.47
2018-02-22T06:27:07.043Z,30.98
2018-02-22T06:29:35.715Z,31.15
2018-02-22T06:32:04.368Z,35.55
2018-02-22T06:34:33.023Z,26.67
2018-02-22T06:37:01.690Z,32.75
2018-02-22T06:39:30.353Z,32.72
2018-02-22T06:41:59.039Z,30.80
2018-02-22T06:44:28.500Z,36.17
2018-02-22T06:46:57.358Z,37.67
2018-02-22T06:49:26.075Z,27.70
2018-02-22T06:51:54.728Z,39.80
2018-02-22T06:54:23.480Z,36.53
2018-02-22T06:56:52.994Z,44.83
2018-02-22T06:59:21.648Z,31.92
2018-02-22T07:01:50.307Z,28.35
2018-02-22T07:04:18.952Z,36.53
2018-02-22T07:06:47.634Z,36.83
2018-02-22T07:09:15.972Z,37.45
2018-02-22T07:11:44.662Z,35.67
2018-02-22T07:14:13.323Z,31.40
2018-02-22T07:16:41.973Z,39.15
2018-02-22T07:19:10.723Z,35.15
2018-02-22T07:21:39.384Z,31.05
2018-02-22T07:24:08.068Z,32.22
2018-02-22T07:26:36.844Z,38.03
2018-02-22T07:29:05.500Z,33.00
2018-02-22T07:31:34.182Z,35.10
2018-02-22T07:34:02.839Z,42.33
2018-02-22T07:36:32.379Z,33.75
2018-02-22T07:39:01.030Z,36.50
2018-02-22T07:41:30.440Z,30.30
2018-02-22T07:43:59.873Z,25.48
2018-02-22T07:46:28.531Z,34.60
2018-02-22T07:48:57.964Z,35.30
2018-02-22T07:51:26.618Z,38.17
2018-02-22T07:53:56.037Z,38.40
2018-02-22T07:56:24.696Z,33.53
2018-02-22T07:58:54.122Z,34.15
2018-02-22T08:01:24.303Z,28.38
2018-02-22T08:03:52.959Z,26.85
2018-02-22T08:06:21.615Z,26.83
2018-02-22T08:08:50.282Z,33.78
2018-02-22T08:11:18.688Z,32.43
2018-02-22T08:13:47.364Z,29.87
2018-02-22T08:16:16.028Z,31.08
2018-02-22T08:18:45.436Z,30.23
2018-02-22T08:21:14.859Z,34.30
2018-02-22T08:23:43.511Z,33.25
2018-02-22T08:26:12.940Z,31.77
2018-02-22T08:28:41.504Z,27.37
2018-02-22T08:31:10.953Z,33.75
2018-02-22T08:33:39.640Z,32.25
2018-02-22T08:36:08.297Z,33.08
2018-02-22T08:38:36.712Z,26.73
2018-02-22T08:41:05.663Z,30.67
2018-02-22T08:43:34.056Z,31.60
2018-02-22T08:46:02.741Z,27.77
2018-02-22T08:48:31.121Z,29.00
2018-02-22T08:50:59.517Z,26.40
2018-02-22T08:53:27.885Z,26.80
2018-02-22T08:55:56.251Z,26.07
2018-02-22T08:58:25.768Z,27.10
2018-02-22T09:00:54.135Z,26.97
2018-02-22T09:03:22.524Z,30.90
2018-02-22T09:05:50.718Z,24.03
2018-02-22T09:08:20.044Z,33.20
2018-02-22T09:10:48.430Z,30.67
2018-02-22T09:13:16.804Z,33.07
2018-02-22T09:15:45.258Z,28.43
2018-02-22T09:18:13.786Z,29.87
2018-02-22T09:20:42.153Z,26.57
2018-02-22T09:23:10.549Z,26.43
2018-02-22T09:25:38.924Z,27.03
2018-02-22T09:28:07.315Z,23.20
2018-02-22T09:30:35.708Z,29.37
2018-02-22T09:33:04.082Z,25.67
2018-02-22T09:35:32.532Z,26.17
2018-02-22T09:38:00.936Z,19.03
2018-02-22T09:40:29.336Z,21.70
2018-02-22T09:42:58.476Z,19.23
2018-02-22T09:45:26.843Z,21.10
2018-02-22T09:47:55.265Z,25.80
2018-02-22T09:50:23.637Z,23.87
2018-02-22T09:52:52.056Z,18.07
2018-02-22T09:55:21.187Z,16.43
2018-02-22T09:57:49.569Z,19.20
2018-02-22T10:00:17.955Z,23.43
2018-02-22T10:02:46.326Z,17.17
2018-02-22T10:05:14.852Z,24.07
2018-02-22T10:07:43.284Z,23.30
2018-02-22T10:10:11.681Z,19.50
2018-02-22T10:12:40.071Z,18.33
2018-02-22T10:15:08.451Z,50.77
2018-02-22T10:17:36.875Z,27.63
2018-02-22T10:20:05.266Z,22.73
2018-02-22T10:22:33.653Z,18.07
2018-02-22T10:25:02.033Z,17.00
2018-02-22T10:27:30.419Z,16.90
2018-02-22T10:29:58.879Z,21.77
2018-02-22T10:35:02.119Z,21.90
2018-02-22T10:37:30.494Z,22.33
2018-02-22T10:39:58.856Z,23.50
2018-02-22T10:42:27.248Z,19.27
2018-02-22T10:44:55.663Z,12.03
2018-02-22T10:47:24.857Z,18.30
2018-02-22T10:49:53.230Z,26.67
2018-02-22T10:52:21.604Z,30.23
2018-02-22T10:54:50.021Z,21.13
2018-02-22T10:57:18.561Z,22.50
2018-02-22T10:59:46.965Z,18.00
2018-02-22T11:02:21.574Z,21.23
2018-02-22T11:04:50.120Z,17.77
2018-02-22T11:07:18.488Z,23.07
2018-02-22T11:09:46.856Z,34.23
2018-02-22T11:12:15.238Z,20.90
2018-02-22T11:14:43.708Z,23.10
2018-02-22T11:17:12.100Z,21.23
2018-02-22T11:19:40.497Z,24.17
2018-02-22T11:22:08.863Z,18.10
2018-02-22T11:24:37.255Z,23.07
2018-02-22T11:27:05.633Z,24.70
2018-02-22T11:29:34.046Z,20.37
2018-02-22T11:32:02.413Z,22.57
2018-02-22T11:34:30.786Z,17.57
2018-02-22T11:36:59.223Z,21.03
2018-02-22T11:39:27.593Z,12.87
2018-02-22T11:41:55.993Z,16.20
2018-02-22T11:44:24.465Z,17.50
2018-02-22T11:46:52.849Z,19.13
2018-02-22T11:49:23.929Z,24.67
2018-02-22T11:51:52.402Z,17.63
2018-02-22T11:54:20.946Z,15.10
2018-02-22T11:56:49.327Z,21.63
2018-02-22T11:59:17.702Z,24.43
2018-02-22T12:01:46.085Z,17.77
2018-02-22T12:04:14.460Z,22.97
2018-02-22T12:06:42.851Z,20.13
2018-02-22T12:09:11.225Z,22.10
2018-02-22T12:11:39.593Z,22.47
2018-02-22T12:14:09.294Z,21.00
2018-02-22T12:16:38.814Z,16.47
2018-02-22T12:19:08.356Z,16.57
2018-02-22T12:21:37.858Z,15.87
2018-02-22T12:24:08.987Z,18.53
2018-02-22T12:26:38.494Z,19.93
2018-02-22T12:29:06.901Z,14.33
2018-02-22T12:31:35.297Z,15.80
2018-02-22T12:34:03.695Z,14.20
2018-02-22T12:36:32.095Z,16.33
2018-02-22T12:39:00.477Z,37.27
2018-02-22T12:41:28.856Z,13.93
2018-02-22T12:43:57.254Z,16.87
2018-02-22T12:46:25.824Z,25.60
2018-02-22T12:48:54.196Z,20.57
2018-02-22T12:51:22.589Z,14.23
2018-02-22T12:53:50.992Z,21.13
2018-02-22T12:56:20.183Z,20.33
2018-02-22T12:58:48.747Z,22.00
2018-02-22T13:01:17.149Z,17.87
2018-02-22T13:03:46.304Z,23.10
2018-02-22T13:06:14.750Z,23.40
2018-02-22T13:08:43.143Z,21.00
2018-02-22T13:11:11.532Z,19.10
2018-02-22T13:13:39.950Z,22.13
2018-02-22T13:16:08.330Z,17.03
2018-02-22T13:18:36.700Z,15.40
2018-02-22T13:21:05.108Z,18.73
2018-02-22T13:23:34.814Z,14.90
2018-02-22T13:26:03.959Z,16.77
2018-02-22T13:28:32.371Z,14.20
2018-02-22T13:31:00.746Z,23.50
2018-02-22T13:33:40.458Z,14.00
2018-02-22T13:36:08.844Z,19.63
2018-02-22T13:38:48.337Z,13.53
2018-02-22T13:41:16.708Z,13.87
2018-02-22T13:43:45.533Z,13.90
2018-02-22T13:46:13.924Z,19.43
2018-02-22T13:48:53.545Z,13.23
2018-02-22T13:51:21.941Z,18.90
2018-02-22T13:53:50.377Z,15.67
2018-02-22T13:59:17.882Z,12.80
2018-02-22T14:01:57.537Z,16.03
2018-02-22T14:04:25.912Z,15.33
2018-02-22T14:06:54.317Z,22.10
2018-02-22T14:09:22.704Z,13.23
2018-02-22T14:11:51.093Z,18.37
2018-02-22T14:14:20.270Z,22.17
2018-02-22T14:16:48.643Z,18.30
2018-02-22T14:19:17.194Z,18.63
2018-02-22T14:21:45.701Z,17.20
2018-02-22T14:24:14.101Z,21.77
2018-02-22T14:26:42.483Z,16.70
2018-02-22T14:29:10.899Z,13.47
2018-02-22T14:31:39.282Z,18.30
2018-02-22T14:34:07.677Z,19.80
2018-02-22T14:36:36.097Z,16.03
2018-02-22T14:39:05.840Z,16.37
2018-02-22T14:41:34.221Z,32.17
2018-02-22T14:44:02.613Z,21.03
2018-02-22T14:46:31.040Z,15.50
2018-02-22T14:48:59.445Z,16.13
2018-02-22T14:51:28.573Z,19.57
2018-02-22T14:53:56.980Z,19.50
2018-02-22T14:56:25.379Z,22.37
2018-02-22T14:58:53.948Z,16.70
2018-02-22T15:01:22.348Z,16.60
2018-02-22T15:03:51.583Z,39.93
2018-02-22T15:06:19.974Z,19.30
2018-02-22T15:08:48.368Z,14.90
2018-02-22T15:11:16.771Z,15.40
2018-02-22T15:13:45.917Z,15.97
2018-02-22T15:16:14.344Z,21.33
2018-02-22T15:18:42.734Z,18.80
2018-02-22T15:21:11.903Z,16.67
2018-02-22T15:23:39.971Z,24.90
2018-02-22T15:26:08.375Z,26.77
2018-02-22T15:28:37.524Z,29.20
2018-02-22T15:31:05.916Z,23.40
2018-02-22T15:33:34.304Z,31.33
2018-02-22T15:36:02.691Z,26.10
2018-02-22T15:38:31.072Z,23.10
2018-02-22T15:40:59.472Z,24.97
2018-02-22T15:43:28.630Z,22.10
2018-02-22T15:45:57.029Z,22.63
2018-02-22T15:48:25.497Z,27.20
2018-02-22T15:50:53.877Z,25.37
2018-02-22T15:53:22.273Z,22.80
2018-02-22T15:55:50.462Z,23.27
2018-02-22T15:58:18.857Z,23.53
2018-02-22T16:00:47.234Z,18.67
2018-02-22T16:03:15.665Z,20.10
2018-02-22T16:05:44.076Z,22.73
2018-02-22T16:08:13.244Z,19.50
2018-02-22T16:10:41.777Z,22.70
2018-02-22T16:13:10.219Z,30.10
2018-02-22T16:15:39.462Z,19.83
2018-02-22T16:18:07.852Z,21.60
2018-02-22T16:20:36.224Z,14.40
2018-02-22T16:23:04.670Z,24.97
2018-02-22T16:25:33.062Z,19.93
2018-02-22T16:28:02.072Z,17.10
2018-02-22T16:30:30.558Z,17.87
2018-02-22T16:32:58.961Z,20.50
2018-02-22T16:35:27.341Z,20.27
2018-02-22T16:37:55.741Z,22.60
2018-02-22T16:40:24.945Z,18.50
2018-02-22T16:42:53.482Z,22.03
2018-02-22T16:45:21.879Z,19.30
2018-02-22T16:47:50.250Z,22.13
2018-02-22T16:50:18.640Z,20.10
2018-02-22T16:52:47.024Z,18.07
2018-02-22T16:55:15.419Z,18.93
2018-02-22T16:57:43.795Z,19.60
2018-02-22T17:00:12.209Z,22.70
2018-02-22T17:02:40.590Z,20.07
2018-02-22T17:05:08.977Z,23.37
2018-02-22T17:07:37.358Z,25.10
2018-02-22T17:10:05.744Z,19.73
2018-02-22T17:12:34.133Z,17.77
2018-02-22T17:15:02.562Z,19.17
2018-02-22T17:17:42.563Z,21.52
2018-02-22T17:20:11.035Z,16.40
2018-02-22T17:22:39.091Z,18.90
2018-02-22T17:25:07.476Z,21.50
2018-02-22T17:27:41.242Z,15.10
2018-02-22T17:30:16.095Z,22.53
2018-02-22T17:32:44.509Z,26.20
2018-02-22T17:38:20.750Z,19.77
2018-02-22T17:40:54.556Z,22.07
2018-02-22T17:43:22.748Z,16.70
2018-02-22T17:45:50.984Z,14.40
2018-02-22T17:48:19.462Z,17.48
2018-02-22T17:50:48.639Z,20.10
2018-02-22T17:53:17.020Z,18.97
2018-02-22T17:55:45.493Z,19.62
2018-02-22T17:58:13.686Z,20.23
2018-02-22T18:00:42.157Z,22.13
2018-02-22T18:03:10.360Z,22.87
2018-02-22T18:05:38.842Z,21.70
2018-02-22T18:08:07.048Z,16.80
2018-02-22T18:10:35.256Z,17.90
2018-02-22T18:13:03.647Z,17.97
2018-02-22T18:15:32.613Z,18.10
2018-02-22T18:18:00.987Z,21.73
2018-02-22T18:20:29.690Z,19.10
2018-02-22T18:22:58.674Z,14.93
2018-02-22T18:25:27.237Z,18.92
2018-02-22T18:27:55.757Z,14.90
2018-02-22T18:30:25.032Z,19.60
2018-02-22T18:32:53.448Z,14.83
2018-02-22T18:35:22.776Z,18.77
2018-02-22T18:37:56.749Z,14.30
2018-02-22T18:40:31.441Z,15.60
2018-02-22T18:42:59.967Z,11.52
2018-02-22T18:45:29.433Z,11.98
2018-02-22T18:47:58.213Z,12.50
2018-02-22T18:50:27.051Z,15.23
2018-02-22T18:52:55.722Z,15.18
2018-02-22T18:55:24.383Z,17.02
2018-02-22T18:57:53.121Z,17.15
2018-02-22T19:00:22.137Z,13.60
2018-02-22T19:02:50.865Z,15.10
2018-02-22T19:05:19.577Z,12.73
2018-02-22T19:07:48.581Z,13.10
2018-02-22T19:10:16.997Z,16.30
2018-02-22T19:12:45.379Z,11.40
2018-02-22T19:15:13.789Z,15.30
2018-02-22T19:17:42.978Z,12.80
2018-02-22T19:20:11.667Z,19.08
2018-02-22T19:22:40.330Z,20.52
2018-02-22T19:25:09.008Z,22.05
2018-02-22T19:27:37.876Z,20.98
2018-02-22T19:30:07.304Z,26.95
2018-02-22T19:32:35.973Z,20.67
2018-02-22T19:35:05.406Z,22.70
2018-02-22T19:37:34.052Z,24.80
2018-02-22T19:40:02.813Z,24.17
2018-02-22T19:42:32.236Z,25.00
2018-02-22T19:45:01.475Z,25.37
2018-02-22T19:47:30.167Z,27.40
2018-02-22T19:49:58.832Z,27.48
2018-02-22T19:52:27.495Z,28.20
2018-02-22T19:54:56.220Z,28.08
2018-02-22T19:57:24.882Z,29.65
2018-02-22T19:59:53.581Z,23.65
2018-02-22T20:02:22.240Z,32.05
2018-02-22T20:04:51.017Z,23.33
2018-02-22T20:07:19.713Z,31.52
2018-02-22T20:09:48.378Z,27.73
2018-02-22T20:12:17.809Z,28.70
2018-02-22T20:14:46.481Z,26.42
2018-02-22T20:17:15.913Z,30.02
2018-02-22T20:19:44.578Z,22.27
2018-02-22T20:22:13.393Z,31.08
2018-02-22T20:24:42.044Z,29.87
2018-02-22T20:27:10.713Z,30.48
2018-02-22T20:29:40.140Z,26.23
2018-02-22T20:32:09.836Z,30.83
2018-02-22T20:34:39.523Z,26.10
2018-02-22T20:37:09.423Z,34.05
2018-02-22T20:39:39.091Z,31.75
2018-02-22T20:42:07.782Z,29.50
2018-02-22T20:44:36.433Z,30.67
2018-02-22T20:47:05.879Z,24.90
2018-02-22T20:49:34.340Z,24.65
2018-02-22T20:52:02.820Z,33.78
2018-02-22T20:54:31.342Z,27.20
2018-02-22T20:56:59.803Z,27.17
2018-02-22T20:59:28.302Z,33.72
2018-02-22T21:01:56.972Z,23.48
2018-02-22T21:04:25.477Z,31.42
2018-02-22T21:06:54.128Z,23.17
2018-02-22T21:09:22.808Z,32.50
2018-02-22T21:11:51.553Z,22.75
2018-02-22T21:14:20.988Z,36.13
2018-02-22T21:16:49.656Z,33.28
2018-02-22T21:19:18.336Z,29.10
2018-02-22T21:21:47.752Z,27.90
2018-02-22T21:24:16.518Z,26.52
2018-02-22T21:26:45.927Z,31.55
2018-02-22T21:29:14.660Z,24.50
2018-02-22T21:31:43.378Z,27.73
2018-02-22T21:34:13.193Z,26.85
2018-02-22T21:36:42.792Z,24.85
2018-02-22T21:39:11.496Z,22.73
2018-02-22T21:41:41.504Z,20.10
2018-02-22T21:44:10.933Z,23.62
2018-02-22T21:46:39.586Z,31.48
2018-02-22T21:49:09.077Z,31.70
2018-02-22T21:51:37.752Z,33.90
2018-02-22T21:54:06.417Z,35.22
2018-02-22T21:56:35.093Z,36.00
2018-02-22T21:59:03.760Z,29.33
2018-02-22T22:01:32.443Z,37.28
2018-02-22T22:04:01.093Z,28.52
2018-02-22T22:06:29.772Z,30.55
2018-02-22T22:08:58.445Z,31.37
2018-02-22T22:11:27.106Z,27.98
2018-02-22T22:13:55.772Z,25.77
2018-02-22T22:16:24.541Z,25.83
2018-02-22T22:18:53.985Z,19.87
2018-02-22T22:21:23.801Z,22.90
2018-02-22T22:23:53.605Z,25.27
2018-02-22T22:26:22.277Z,33.25
2018-02-22T22:28:52.978Z,28.05
2018-02-22T22:31:22.425Z,34.95
2018-02-22T22:33:51.113Z,24.60
2018-02-22T22:36:20.536Z,29.83
2018-02-22T22:38:50.346Z,27.95
2018-02-22T22:41:20.160Z,32.97
2018-02-22T22:43:48.821Z,25.80
2018-02-22T22:46:17.496Z,21.05
2018-02-22T22:48:47.290Z,29.30
2018-02-22T22:51:17.808Z,22.15
2018-02-22T22:53:47.225Z,23.05
2018-02-22T22:56:16.102Z,22.90
2018-02-22T22:58:45.544Z,29.25
2018-02-22T23:01:14.197Z,22.23
2018-02-22T23:03:42.873Z,31.08
2018-02-22T23:06:12.310Z,19.83
2018-02-22T23:08:40.983Z,27.77
2018-02-22T23:11:09.645Z,17.62
2018-02-22T23:13:39.325Z,14.45
2018-02-22T23:16:07.985Z,21.25
2018-02-22T23:18:36.654Z,26.08
2018-02-22T23:21:05.357Z,20.80
2018-02-22T23:23:35.085Z,26.12
2018-02-22T23:26:03.740Z,24.90
2018-02-22T23:28:32.418Z,20.92
2018-02-22T23:31:01.192Z,28.05
2018-02-22T23:33:29.703Z,27.02
2018-02-22T23:35:58.388Z,19.60
2018-02-22T23:38:27.989Z,21.67
2018-02-22T23:41:02.450Z,23.08
2018-02-22T23:43:30.944Z,23.87
2018-02-22T23:46:00.187Z,29.40
2018-02-22T23:48:34.049Z,23.65
2018-02-22T23:51:03.460Z,16.35
2018-02-22T23:53:32.961Z,21.50
2018-02-22T23:56:02.407Z,23.73
2018-02-22T23:58:31.073Z,18.70
